Terminal Aerodrome Forecast
Issued by NWS

Home | Current Version | Previous Version | Graphics & Text | Print | Product List | Glossary On
Versions: 1 2 3 4 5 6 7 8 9 10 11 12 13 14 15 16 17 18 19 20 21 22 23 24 25
000
FTUS43 KABR 171128
TAFMBG
TAF
KMBG 171128Z 1712/1812 12015KT P6SM FEW250
     FM172000 13015G25KT P6SM BKN110
     FM180100 07008KT P6SM -RA OVC045
     FM180400 06008KT P6SM -RASN OVC015
     FM180800 VRB06KT 4SM -SN BR OVC008=

USA.gov is the U.S. government's official web portal to all federal, state and local government web resources and services.